createdAt,value
2016-07-24T00:00:52.799Z,0
2016-07-24T00:01:52.780Z,0
2016-07-24T00:02:52.069Z,0
2016-07-24T00:03:52.797Z,0
2016-07-24T00:04:50.609Z,0
2016-07-24T00:05:52.758Z,0
2016-07-24T00:06:52.140Z,0
2016-07-24T00:07:51.294Z,0
2016-07-24T00:08:52.018Z,0
2016-07-24T00:09:51.997Z,0
2016-07-24T00:10:52.739Z,0
2016-07-24T00:11:52.720Z,0
2016-07-24T00:12:52.040Z,0
2016-07-24T00:13:51.933Z,0
2016-07-24T00:14:51.240Z,0
2016-07-24T00:15:51.926Z,0
2016-07-24T00:16:52.669Z,0
2016-07-24T00:17:52.646Z,0
2016-07-24T00:18:52.596Z,0
2016-07-24T00:19:50.477Z,0
2016-07-24T00:20:50.489Z,0
2016-07-24T00:21:52.579Z,0
2016-07-24T00:22:52.580Z,0
2016-07-24T00:23:52.556Z,0
2016-07-24T00:24:52.599Z,0
2016-07-24T00:25:51.827Z,0
2016-07-24T00:26:52.529Z,0
2016-07-24T00:27:52.519Z,0
2016-07-24T00:28:51.816Z,0
2016-07-24T00:29:51.058Z,0
2016-07-24T00:30:51.045Z,0
2016-07-24T00:31:52.457Z,0
2016-07-24T00:32:52.483Z,0
2016-07-24T00:33:51.801Z,0
2016-07-24T00:34:52.448Z,0
2016-07-24T00:35:51.708Z,0
2016-07-24T00:36:51.720Z,0
2016-07-24T00:37:52.407Z,0
2016-07-24T00:38:51.022Z,0
2016-07-24T00:39:52.389Z,0
2016-07-24T00:40:51.690Z,0
2016-07-24T00:41:51.648Z,0
2016-07-24T00:42:52.358Z,0
2016-07-24T00:43:51.719Z,0
2016-07-24T00:44:52.380Z,0
2016-07-24T00:45:52.318Z,0
2016-07-24T00:46:52.347Z,0
2016-07-24T00:47:51.692Z,0
2016-07-24T00:48:52.310Z,0
2016-07-24T00:49:51.579Z,0
2016-07-24T00:50:52.301Z,0
2016-07-24T00:51:51.587Z,0
2016-07-24T00:52:51.531Z,0
2016-07-24T00:53:50.895Z,0
2016-07-24T00:54:50.811Z,0
2016-07-24T00:55:51.557Z,0
2016-07-24T00:56:52.188Z,0
2016-07-24T00:57:52.188Z,0
2016-07-24T00:58:51.470Z,0
2016-07-24T00:59:51.569Z,0
2016-07-24T01:00:52.178Z,0
2016-07-24T01:01:52.237Z,0
2016-07-24T01:02:51.419Z,0
2016-07-24T01:03:52.157Z,0
2016-07-24T01:04:51.417Z,0
2016-07-24T01:05:52.180Z,0
2016-07-24T01:06:52.083Z,0
2016-07-24T01:07:51.359Z,0
2016-07-24T01:08:52.078Z,0
2016-07-24T01:09:51.379Z,0
2016-07-24T01:10:52.045Z,0
2016-07-24T01:11:52.118Z,0
2016-07-24T01:12:52.028Z,0
2016-07-24T01:13:51.349Z,0
2016-07-24T01:14:52.010Z,0
2016-07-24T01:15:51.296Z,0
2016-07-24T01:16:51.957Z,0
2016-07-24T01:17:51.979Z,0
2016-07-24T01:18:50.519Z,0
2016-07-24T01:19:51.253Z,0
2016-07-24T01:20:51.223Z,0
2016-07-24T01:21:51.216Z,0
2016-07-24T01:22:51.198Z,0
2016-07-24T01:23:50.576Z,0
2016-07-24T01:24:51.887Z,0
2016-07-24T01:25:51.887Z,0
2016-07-24T01:26:51.148Z,0
2016-07-24T01:27:50.506Z,0
2016-07-24T01:28:51.870Z,0
2016-07-24T01:29:50.403Z,0
2016-07-24T01:30:51.817Z,0
2016-07-24T01:31:51.156Z,0
2016-07-24T01:32:51.799Z,0
2016-07-24T01:33:51.799Z,0
2016-07-24T01:34:51.076Z,0
2016-07-24T01:35:51.769Z,0
2016-07-24T01:36:51.769Z,0
2016-07-24T01:37:51.049Z,0
2016-07-24T01:38:51.127Z,0
2016-07-24T01:39:51.005Z,0
2016-07-24T01:40:51.740Z,0
2016-07-24T01:41:50.995Z,0
2016-07-24T01:42:51.704Z,0
2016-07-24T01:43:50.960Z,0
2016-07-24T01:44:51.680Z,0
2016-07-24T01:45:51.689Z,0
2016-07-24T01:46:51.039Z,0
2016-07-24T01:47:51.637Z,0
2016-07-24T01:48:50.944Z,0
2016-07-24T01:49:51.613Z,0
2016-07-24T01:50:51.598Z,0
2016-07-24T01:51:50.865Z,0
2016-07-24T01:52:50.927Z,0
2016-07-24T01:53:50.877Z,0
2016-07-24T01:54:50.849Z,0
2016-07-24T01:55:50.827Z,0
2016-07-24T01:56:51.568Z,0
2016-07-24T01:57:51.550Z,0
2016-07-24T01:58:50.912Z,0
2016-07-24T01:59:51.498Z,0
2016-07-24T02:00:51.496Z,0
2016-07-24T02:01:51.497Z,0
2016-07-24T02:02:51.531Z,0
2016-07-24T02:03:50.083Z,0
2016-07-24T02:04:50.741Z,0
2016-07-24T02:05:50.804Z,0
2016-07-24T02:06:51.431Z,0
2016-07-24T02:07:50.691Z,0
2016-07-24T02:08:50.687Z,0
2016-07-24T02:09:50.665Z,0
2016-07-24T02:10:50.671Z,0
2016-07-24T02:11:51.378Z,0
2016-07-24T02:12:51.350Z,0
2016-07-24T02:13:50.631Z,0
2016-07-24T02:14:51.330Z,0
2016-07-24T02:15:51.314Z,0
2016-07-24T02:16:51.390Z,0
2016-07-24T02:17:50.589Z,0
2016-07-24T02:18:51.300Z,0
2016-07-24T02:19:51.279Z,0
2016-07-24T02:20:51.288Z,0
2016-07-24T02:21:51.270Z,0
2016-07-24T02:22:51.231Z,0
2016-07-24T02:23:51.244Z,0
2016-07-24T02:24:51.231Z,0
2016-07-24T02:25:50.490Z,0
2016-07-24T02:26:50.479Z,0
2016-07-24T02:27:50.489Z,0
2016-07-24T02:28:50.509Z,0
2016-07-24T02:29:50.446Z,0
2016-07-24T02:30:51.160Z,0
2016-07-24T02:31:51.141Z,0
2016-07-24T02:32:50.420Z,0
2016-07-24T02:33:51.149Z,0
2016-07-24T02:34:50.383Z,0
2016-07-24T02:35:51.102Z,0
2016-07-24T02:36:50.382Z,0
2016-07-24T02:37:50.361Z,0
2016-07-24T02:38:50.358Z,0
2016-07-24T02:39:51.057Z,0
2016-07-24T02:40:50.361Z,0
2016-07-24T02:41:51.024Z,0
2016-07-24T02:42:51.055Z,0
2016-07-24T02:43:50.331Z,0
2016-07-24T02:44:51.039Z,0
2016-07-24T02:45:50.262Z,0
2016-07-24T02:46:50.249Z,0
2016-07-24T02:47:50.959Z,0
2016-07-24T02:48:50.950Z,0
2016-07-24T02:49:50.930Z,0
2016-07-24T02:50:50.937Z,0
2016-07-24T02:51:50.919Z,0
2016-07-24T02:52:50.911Z,0
2016-07-24T02:53:50.899Z,0
2016-07-24T02:54:50.878Z,0
2016-07-24T02:55:50.870Z,0
2016-07-24T02:56:50.875Z,0
2016-07-24T02:57:50.920Z,0
2016-07-24T02:58:48.691Z,0
2016-07-24T02:59:50.850Z,0
2016-07-24T03:00:50.101Z,0
2016-07-24T03:01:50.850Z,0
2016-07-24T03:02:50.792Z,0
2016-07-24T03:03:50.909Z,0
2016-07-24T03:04:50.771Z,0
2016-07-24T03:05:50.887Z,0
2016-07-24T03:06:50.040Z,0
2016-07-24T03:07:50.047Z,0
2016-07-24T03:08:50.730Z,0
2016-07-24T03:09:50.019Z,0
2016-07-24T03:10:49.988Z,0
2016-07-24T03:11:49.978Z,0
2016-07-24T03:12:49.970Z,0
2016-07-24T03:13:50.670Z,0
2016-07-24T03:14:50.648Z,0
2016-07-24T03:15:49.922Z,0
2016-07-24T03:16:49.925Z,0
2016-07-24T03:17:50.630Z,0
2016-07-24T03:18:49.908Z,0
2016-07-24T03:19:50.018Z,0
2016-07-24T03:20:50.629Z,0
2016-07-24T03:21:50.571Z,0
2016-07-24T03:22:50.566Z,0
2016-07-24T03:23:49.130Z,0
2016-07-24T03:24:50.542Z,0
2016-07-24T03:25:49.832Z,0
2016-07-24T03:26:50.521Z,0
2016-07-24T03:27:49.800Z,0
2016-07-24T03:28:49.762Z,0
2016-07-24T03:29:50.472Z,0
2016-07-24T03:30:50.478Z,0
2016-07-24T03:31:50.460Z,0
2016-07-24T03:32:49.018Z,0
2016-07-24T03:33:49.713Z,0
2016-07-24T03:34:49.713Z,0
2016-07-24T03:35:50.466Z,0
2016-07-24T03:36:49.746Z,0
2016-07-24T03:37:50.410Z,0
2016-07-24T03:38:50.377Z,0
2016-07-24T03:39:50.355Z,0
2016-07-24T03:40:49.728Z,0
2016-07-24T03:41:50.348Z,0
2016-07-24T03:42:50.324Z,0
2016-07-24T03:43:49.201Z,5
2016-07-24T03:44:49.649Z,5
2016-07-24T03:45:50.288Z,5
2016-07-24T03:46:49.718Z,5
2016-07-24T03:47:50.265Z,5
2016-07-24T03:48:50.267Z,5
2016-07-24T03:49:50.255Z,5
2016-07-24T03:50:50.240Z,5
2016-07-24T03:51:50.229Z,5
2016-07-24T03:52:50.226Z,5
2016-07-24T03:53:49.478Z,5
2016-07-24T03:54:50.257Z,5
2016-07-24T03:55:49.477Z,10
2016-07-24T03:56:50.240Z,10
2016-07-24T03:57:50.165Z,10
2016-07-24T03:58:50.127Z,10
2016-07-24T03:59:50.138Z,10
2016-07-24T04:00:50.130Z,10
2016-07-24T04:01:49.400Z,10
2016-07-24T04:02:50.137Z,10
2016-07-24T04:03:47.940Z,10
2016-07-24T04:04:48.639Z,10
2016-07-24T04:05:50.047Z,15
2016-07-24T04:06:50.067Z,15
2016-07-24T04:07:49.327Z,15
2016-07-24T04:08:49.317Z,15
2016-07-24T04:09:48.609Z,15
2016-07-24T04:10:49.309Z,15
2016-07-24T04:11:48.569Z,15
2016-07-24T04:12:49.308Z,15
2016-07-24T04:13:49.257Z,15
2016-07-24T04:14:49.976Z,15
2016-07-24T04:15:49.966Z,15
2016-07-24T04:16:49.928Z,20
2016-07-24T04:17:49.920Z,20
2016-07-24T04:18:49.216Z,20
2016-07-24T04:19:49.190Z,20
2016-07-24T04:20:49.887Z,20
2016-07-24T04:21:49.159Z,20
2016-07-24T04:22:50.028Z,20
2016-07-24T04:23:49.149Z,20
2016-07-24T04:24:49.130Z,20
2016-07-24T04:25:49.109Z,20
2016-07-24T04:26:49.838Z,25
2016-07-24T04:27:49.080Z,25
2016-07-24T04:28:48.367Z,25
2016-07-24T04:29:49.080Z,25
2016-07-24T04:30:49.773Z,25
2016-07-24T04:31:49.756Z,25
2016-07-24T04:32:49.755Z,25
2016-07-24T04:33:49.017Z,25
2016-07-24T04:34:49.724Z,25
2016-07-24T04:35:49.720Z,30
2016-07-24T04:36:48.995Z,30
2016-07-24T04:37:49.700Z,30
2016-07-24T04:38:49.685Z,30
2016-07-24T04:39:49.660Z,30
2016-07-24T04:40:48.939Z,30
2016-07-24T04:41:48.941Z,35
2016-07-24T04:42:48.927Z,35
2016-07-24T04:43:48.938Z,35
2016-07-24T04:44:48.191Z,35
2016-07-24T04:45:48.890Z,35
2016-07-24T04:46:48.888Z,40
2016-07-24T04:47:49.580Z,40
2016-07-24T04:48:49.569Z,40
2016-07-24T04:49:49.551Z,40
2016-07-24T04:50:49.541Z,40
2016-07-24T04:51:47.390Z,40
2016-07-24T04:52:49.537Z,40
2016-07-24T04:53:48.160Z,40
2016-07-24T04:54:48.773Z,45
2016-07-24T04:55:49.549Z,45
2016-07-24T04:56:49.482Z,50
2016-07-24T04:57:48.780Z,50
2016-07-24T04:58:48.730Z,50
2016-07-24T04:59:48.814Z,50
2016-07-24T05:00:49.438Z,50
2016-07-24T05:01:49.489Z,50
2016-07-24T05:02:49.409Z,50
2016-07-24T05:03:49.431Z,50
2016-07-24T05:04:49.389Z,50
2016-07-24T05:05:49.367Z,55
2016-07-24T05:06:47.958Z,55
2016-07-24T05:07:49.331Z,55
2016-07-24T05:08:49.331Z,55
2016-07-24T05:09:48.608Z,60
2016-07-24T05:10:47.881Z,60
2016-07-24T05:11:48.680Z,60
2016-07-24T05:12:47.896Z,60
2016-07-24T05:13:49.289Z,65
2016-07-24T05:14:49.271Z,65
2016-07-24T05:15:49.366Z,65
2016-07-24T05:16:49.240Z,65
2016-07-24T05:17:47.800Z,70
2016-07-24T05:18:48.509Z,70
2016-07-24T05:19:49.281Z,70
2016-07-24T05:20:49.200Z,70
2016-07-24T05:21:49.281Z,75
2016-07-24T05:22:47.737Z,75
2016-07-24T05:23:48.446Z,75
2016-07-24T05:24:49.230Z,75
2016-07-24T05:25:48.440Z,80
2016-07-24T05:26:49.140Z,80
2016-07-24T05:27:47.741Z,80
2016-07-24T05:28:49.108Z,80
2016-07-24T05:29:49.178Z,85
2016-07-24T05:30:48.380Z,85
2016-07-24T05:31:48.391Z,85
2016-07-24T05:32:48.459Z,85
2016-07-24T05:33:49.130Z,85
2016-07-24T05:34:48.331Z,85
2016-07-24T05:35:49.127Z,90
2016-07-24T05:36:49.040Z,90
2016-07-24T05:37:49.038Z,90
2016-07-24T05:38:49.011Z,90
2016-07-24T05:39:49.008Z,90
2016-07-24T05:40:48.989Z,90
2016-07-24T05:41:48.995Z,90
2016-07-24T05:42:48.979Z,95
2016-07-24T05:43:48.961Z,95
2016-07-24T05:44:48.929Z,95
2016-07-24T05:45:48.220Z,95
2016-07-24T05:46:48.908Z,95
2016-07-24T05:47:48.208Z,95
2016-07-24T05:48:48.905Z,95
2016-07-24T05:49:48.920Z,100
2016-07-24T05:50:48.900Z,100
2016-07-24T05:51:47.450Z,100
2016-07-24T05:52:48.159Z,100
2016-07-24T05:53:48.126Z,100
2016-07-24T05:54:48.117Z,100
2016-07-24T05:55:48.838Z,100
2016-07-24T05:56:48.897Z,105
2016-07-24T05:57:48.111Z,105
2016-07-24T05:58:48.110Z,105
2016-07-24T05:59:48.792Z,105
2016-07-24T06:00:48.837Z,105
2016-07-24T06:01:47.331Z,105
2016-07-24T06:02:48.758Z,105
2016-07-24T06:03:48.050Z,105
2016-07-24T06:04:48.724Z,105
2016-07-24T06:05:48.743Z,105
2016-07-24T06:06:48.740Z,105
2016-07-24T06:07:48.710Z,110
2016-07-24T06:08:48.710Z,115
2016-07-24T06:09:48.702Z,115
2016-07-24T06:10:47.960Z,115
2016-07-24T06:11:48.672Z,120
2016-07-24T06:12:48.661Z,120
2016-07-24T06:13:47.930Z,120
2016-07-24T06:14:47.928Z,120
2016-07-24T06:15:47.918Z,120
2016-07-24T06:16:47.910Z,125
2016-07-24T06:17:48.848Z,125
2016-07-24T06:18:48.683Z,125
2016-07-24T06:19:47.873Z,130
2016-07-24T06:20:47.156Z,125
2016-07-24T06:21:48.610Z,125
2016-07-24T06:22:48.558Z,125
2016-07-24T06:23:48.557Z,130
2016-07-24T06:24:47.830Z,130
2016-07-24T06:25:48.551Z,130
2016-07-24T06:26:48.575Z,130
2016-07-24T06:27:48.520Z,130
2016-07-24T06:28:47.799Z,130
2016-07-24T06:29:46.360Z,130
2016-07-24T06:30:47.791Z,135
2016-07-24T06:31:48.490Z,135
2016-07-24T06:32:47.765Z,135
2016-07-24T06:33:47.741Z,140
2016-07-24T06:34:48.451Z,140
2016-07-24T06:35:48.438Z,140
2016-07-24T06:36:47.008Z,140
2016-07-24T06:37:48.430Z,140
2016-07-24T06:38:48.432Z,145
2016-07-24T06:39:46.246Z,145
2016-07-24T06:40:48.390Z,145
2016-07-24T06:41:47.677Z,150
2016-07-24T06:42:46.960Z,150
2016-07-24T06:43:48.371Z,155
2016-07-24T06:44:48.370Z,155
2016-07-24T06:45:48.362Z,155
2016-07-24T06:46:48.360Z,160
2016-07-24T06:47:47.635Z,160
2016-07-24T06:48:48.344Z,165
2016-07-24T06:49:48.331Z,165
2016-07-24T06:50:48.299Z,170
2016-07-24T06:51:47.708Z,170
2016-07-24T06:52:48.297Z,170
2016-07-24T06:53:48.317Z,175
2016-07-24T06:54:47.550Z,175
2016-07-24T06:55:48.257Z,175
2016-07-24T06:56:48.270Z,175
2016-07-24T06:57:47.561Z,175
2016-07-24T06:58:47.736Z,175
2016-07-24T06:59:48.462Z,175
2016-07-24T07:00:47.511Z,175
2016-07-24T07:01:47.500Z,175
2016-07-24T07:02:48.208Z,175
2016-07-24T07:03:47.570Z,175
2016-07-24T07:04:46.759Z,175
2016-07-24T07:05:47.471Z,175
2016-07-24T07:06:48.181Z,180
2016-07-24T07:07:47.486Z,175
2016-07-24T07:08:48.140Z,175
2016-07-24T07:09:48.138Z,175
2016-07-24T07:10:48.169Z,175
2016-07-24T07:11:48.127Z,180
2016-07-24T07:12:46.757Z,180
2016-07-24T07:13:48.150Z,180
2016-07-24T07:14:46.697Z,185
2016-07-24T07:15:48.111Z,185
2016-07-24T07:16:48.093Z,185
2016-07-24T07:17:48.092Z,185
2016-07-24T07:18:47.429Z,190
2016-07-24T07:19:46.640Z,190
2016-07-24T07:20:47.411Z,190
2016-07-24T07:21:48.111Z,195
2016-07-24T07:22:46.638Z,195
2016-07-24T07:23:48.017Z,195
2016-07-24T07:24:47.330Z,195
2016-07-24T07:25:48.031Z,200
2016-07-24T07:26:48.061Z,200
2016-07-24T07:27:46.551Z,200
2016-07-24T07:28:47.409Z,205
2016-07-24T07:29:47.991Z,205
2016-07-24T07:30:47.378Z,205
2016-07-24T07:31:47.255Z,210
2016-07-24T07:32:48.066Z,210
2016-07-24T07:33:47.950Z,210
2016-07-24T07:34:45.794Z,210
2016-07-24T07:35:46.509Z,215
2016-07-24T07:36:47.949Z,215
2016-07-24T07:37:47.941Z,215
2016-07-24T07:38:47.239Z,215
2016-07-24T07:39:46.466Z,215
2016-07-24T07:40:47.911Z,215
2016-07-24T07:41:46.593Z,220
2016-07-24T07:42:47.871Z,220
2016-07-24T07:43:47.878Z,220
2016-07-24T07:44:47.857Z,225
2016-07-24T07:45:47.144Z,225
2016-07-24T07:46:47.138Z,225
2016-07-24T07:47:47.841Z,225
2016-07-24T07:48:47.125Z,230
2016-07-24T07:49:46.417Z,230
2016-07-24T07:50:47.911Z,230
2016-07-24T07:51:45.681Z,235
2016-07-24T07:52:46.376Z,235
2016-07-24T07:53:47.810Z,245
2016-07-24T07:54:47.133Z,240
2016-07-24T07:55:46.336Z,245
2016-07-24T07:56:47.070Z,245
2016-07-24T07:57:46.339Z,250
2016-07-24T07:58:46.334Z,250
2016-07-24T07:59:47.031Z,250
2016-07-24T08:00:47.067Z,250
2016-07-24T08:01:47.120Z,250
2016-07-24T08:02:47.042Z,255
2016-07-24T08:03:47.029Z,255
2016-07-24T08:04:47.721Z,260
2016-07-24T08:05:47.800Z,260
2016-07-24T08:06:46.989Z,260
2016-07-24T08:07:47.712Z,265
2016-07-24T08:08:46.991Z,265
2016-07-24T08:09:47.047Z,265
2016-07-24T08:10:46.979Z,270
2016-07-24T08:11:47.712Z,270
2016-07-24T08:12:46.360Z,270
2016-07-24T08:13:47.038Z,280
2016-07-24T08:14:45.497Z,275
2016-07-24T08:15:46.928Z,275
2016-07-24T08:16:47.630Z,280
2016-07-24T08:17:47.696Z,280
2016-07-24T08:18:47.622Z,280
2016-07-24T08:19:46.179Z,280
2016-07-24T08:20:47.603Z,285
2016-07-24T08:21:46.900Z,290
2016-07-24T08:22:46.891Z,295
2016-07-24T08:23:45.439Z,300
2016-07-24T08:24:45.436Z,295
2016-07-24T08:25:45.420Z,300
2016-07-24T08:26:46.851Z,260
2016-07-24T08:27:47.637Z,310
2016-07-24T08:28:46.839Z,305
2016-07-24T08:29:46.163Z,305
2016-07-24T08:30:46.180Z,310
2016-07-24T08:31:46.108Z,310
2016-07-24T08:32:46.167Z,315
2016-07-24T08:33:46.832Z,320
2016-07-24T08:34:47.537Z,320
2016-07-24T08:35:46.809Z,325
2016-07-24T08:36:46.111Z,325
2016-07-24T08:37:46.070Z,330
2016-07-24T08:38:46.081Z,335
2016-07-24T08:39:47.518Z,395
2016-07-24T08:40:47.507Z,535
2016-07-24T08:41:46.081Z,705
2016-07-24T08:42:45.356Z,805
2016-07-24T08:43:46.060Z,920
2016-07-24T08:44:46.774Z,1085
2016-07-24T08:45:46.760Z,1150
2016-07-24T08:46:46.837Z,1145
2016-07-24T08:47:45.397Z,1140
2016-07-24T08:48:46.031Z,1120
2016-07-24T08:49:46.740Z,1140
2016-07-24T08:50:46.837Z,1155
2016-07-24T08:51:47.479Z,1185
2016-07-24T08:52:46.030Z,1180
2016-07-24T08:53:46.726Z,1130
2016-07-24T08:54:47.498Z,1140
2016-07-24T08:55:47.447Z,1175
2016-07-24T08:56:46.746Z,1140
2016-07-24T08:57:46.727Z,115
2016-07-24T08:58:46.007Z,75
2016-07-24T08:59:46.024Z,80
2016-07-24T09:00:46.016Z,75
2016-07-24T09:01:46.735Z,75
2016-07-24T09:02:46.007Z,80
2016-07-24T09:03:46.060Z,80
2016-07-24T09:04:46.747Z,80
2016-07-24T09:05:47.450Z,80
2016-07-24T09:06:46.711Z,80
2016-07-24T09:07:47.457Z,80
2016-07-24T09:08:46.004Z,85
2016-07-24T09:09:47.418Z,85
2016-07-24T09:10:46.718Z,85
2016-07-24T09:11:47.426Z,85
2016-07-24T09:12:47.415Z,85
2016-07-24T09:13:46.736Z,80
2016-07-24T09:14:46.706Z,85
2016-07-24T09:15:47.428Z,85
2016-07-24T09:16:45.980Z,80
2016-07-24T09:17:45.986Z,80
2016-07-24T09:18:46.941Z,55
2016-07-24T09:19:46.690Z,45
2016-07-24T09:20:46.687Z,45
2016-07-24T09:21:47.479Z,45
2016-07-24T09:22:47.378Z,45
2016-07-24T09:23:47.479Z,45
2016-07-24T09:24:45.952Z,40
2016-07-24T09:25:45.950Z,40
2016-07-24T09:26:45.937Z,45
2016-07-24T09:27:46.641Z,45
2016-07-24T09:28:46.639Z,55
2016-07-24T09:29:45.925Z,55
2016-07-24T09:30:46.631Z,40
2016-07-24T09:31:47.361Z,45
2016-07-24T09:32:45.894Z,50
2016-07-24T09:33:46.610Z,50
2016-07-24T09:34:46.661Z,50
2016-07-24T09:35:47.330Z,50
2016-07-24T09:36:45.927Z,65
2016-07-24T09:37:46.632Z,80
2016-07-24T09:38:45.860Z,80
2016-07-24T09:39:46.601Z,50
2016-07-24T09:40:45.857Z,50
2016-07-24T09:41:46.578Z,50
2016-07-24T09:42:46.610Z,60
2016-07-24T09:43:47.291Z,85
2016-07-24T09:44:46.721Z,90
2016-07-24T09:45:46.558Z,85
2016-07-24T09:46:45.140Z,65
2016-07-24T09:47:45.827Z,60
2016-07-24T09:48:46.590Z,50
2016-07-24T09:49:47.257Z,50
2016-07-24T09:50:45.852Z,50
2016-07-24T09:51:46.510Z,65
2016-07-24T09:52:47.237Z,55
2016-07-24T09:53:45.802Z,55
2016-07-24T09:54:47.299Z,60
2016-07-24T09:55:45.808Z,80
2016-07-24T09:56:46.483Z,100
2016-07-24T09:57:46.491Z,100
2016-07-24T09:58:46.470Z,105
2016-07-24T09:59:45.778Z,100
2016-07-24T10:00:47.188Z,100
2016-07-24T10:01:46.458Z,100
2016-07-24T10:02:46.444Z,100
2016-07-24T10:03:47.181Z,100
2016-07-24T10:04:46.451Z,100
2016-07-24T10:05:47.154Z,100
2016-07-24T10:06:46.439Z,95
2016-07-24T10:07:47.148Z,100
2016-07-24T10:08:47.156Z,100
2016-07-24T10:09:47.147Z,105
2016-07-24T10:10:47.126Z,100
2016-07-24T10:11:46.437Z,105
2016-07-24T10:12:46.411Z,105
2016-07-24T10:13:47.119Z,105
2016-07-24T10:14:47.104Z,110
2016-07-24T10:15:47.092Z,105
2016-07-24T10:16:46.458Z,105
2016-07-24T10:17:47.069Z,95
2016-07-24T10:18:46.358Z,95
2016-07-24T10:19:45.790Z,80
2016-07-24T10:20:45.672Z,80
2016-07-24T10:21:46.350Z,105
2016-07-24T10:22:45.049Z,105
2016-07-24T10:23:46.382Z,105
2016-07-24T10:24:46.350Z,105
2016-07-24T10:25:46.456Z,95
2016-07-24T10:26:45.635Z,85
2016-07-24T10:27:47.068Z,105
2016-07-24T10:28:46.327Z,160
2016-07-24T10:29:46.317Z,160
2016-07-24T10:30:47.032Z,85
2016-07-24T10:31:47.100Z,210
2016-07-24T10:32:46.318Z,125
2016-07-24T10:33:46.372Z,65
2016-07-24T10:34:46.317Z,60
2016-07-24T10:35:47.012Z,70
2016-07-24T10:36:46.291Z,60
2016-07-24T10:37:47.052Z,60
2016-07-24T10:38:46.285Z,60
2016-07-24T10:39:46.289Z,60
2016-07-24T10:40:46.267Z,60
2016-07-24T10:41:47.014Z,100
2016-07-24T10:42:46.258Z,95
2016-07-24T10:43:46.980Z,55
2016-07-24T10:44:45.545Z,50
2016-07-24T10:45:46.971Z,50
2016-07-24T10:46:46.228Z,50
2016-07-24T10:47:46.960Z,55
2016-07-24T10:48:46.241Z,55
2016-07-24T10:49:46.238Z,55
2016-07-24T10:50:46.928Z,55
2016-07-24T10:51:46.930Z,60
2016-07-24T10:52:46.214Z,55
2016-07-24T10:53:45.559Z,55
2016-07-24T10:54:46.211Z,55
2016-07-24T10:55:46.202Z,60
2016-07-24T10:56:46.902Z,60
2016-07-24T10:57:46.892Z,65
2016-07-24T10:58:46.881Z,75
2016-07-24T10:59:45.459Z,120
2016-07-24T11:00:46.188Z,125
2016-07-24T11:01:46.162Z,125
2016-07-24T11:02:46.868Z,125
2016-07-24T11:03:44.798Z,120
2016-07-24T11:04:46.858Z,120
2016-07-24T11:05:46.870Z,125
2016-07-24T11:06:46.829Z,120
2016-07-24T11:07:46.850Z,120
2016-07-24T11:08:46.829Z,120
2016-07-24T11:09:46.839Z,120
2016-07-24T11:10:46.129Z,125
2016-07-24T11:11:46.110Z,120
2016-07-24T11:12:45.399Z,115
2016-07-24T11:13:45.376Z,120
2016-07-24T11:14:45.370Z,100
2016-07-24T11:15:46.791Z,75
2016-07-24T11:16:44.737Z,85
2016-07-24T11:17:46.140Z,75
2016-07-24T11:18:45.343Z,70
2016-07-24T11:19:45.347Z,70
2016-07-24T11:20:45.336Z,70
2016-07-24T11:21:45.332Z,75
2016-07-24T11:22:45.332Z,65
2016-07-24T11:23:46.759Z,65
2016-07-24T11:24:46.776Z,65
2016-07-24T11:25:46.751Z,75
2016-07-24T11:26:46.013Z,115
2016-07-24T11:27:46.752Z,120
2016-07-24T11:28:46.030Z,125
2016-07-24T11:29:46.058Z,125
2016-07-24T11:30:46.738Z,125
2016-07-24T11:31:45.277Z,120
2016-07-24T11:32:45.296Z,130
2016-07-24T11:33:45.276Z,125
2016-07-24T11:34:46.696Z,125
2016-07-24T11:35:45.271Z,130
2016-07-24T11:36:45.966Z,130
2016-07-24T11:37:46.029Z,130
2016-07-24T11:38:46.692Z,130
2016-07-24T11:39:46.720Z,135
2016-07-24T11:40:45.968Z,135
2016-07-24T11:41:46.677Z,130
2016-07-24T11:42:46.757Z,130
2016-07-24T11:43:45.257Z,130
2016-07-24T11:44:46.656Z,130
2016-07-24T11:45:45.950Z,130
2016-07-24T11:46:46.659Z,125
2016-07-24T11:47:46.643Z,130
2016-07-24T11:48:45.930Z,120
2016-07-24T11:49:46.696Z,105
2016-07-24T11:50:46.639Z,65
2016-07-24T11:51:45.929Z,65
2016-07-24T11:52:45.278Z,65
2016-07-24T11:53:45.917Z,60
2016-07-24T11:54:45.896Z,60
2016-07-24T11:55:45.901Z,60
2016-07-24T11:56:46.627Z,60
2016-07-24T11:57:46.617Z,55
2016-07-24T11:58:46.596Z,55
2016-07-24T11:59:45.959Z,50
2016-07-24T12:00:45.873Z,50
2016-07-24T12:01:45.178Z,50
2016-07-24T12:02:45.889Z,50
2016-07-24T12:03:46.579Z,55
2016-07-24T12:04:45.208Z,55
2016-07-24T12:05:45.847Z,60
2016-07-24T12:06:46.580Z,80
2016-07-24T12:07:45.845Z,95
2016-07-24T12:08:46.672Z,85
2016-07-24T12:09:45.117Z,60
2016-07-24T12:10:46.549Z,60
2016-07-24T12:11:46.535Z,60
2016-07-24T12:12:46.579Z,60
2016-07-24T12:13:45.151Z,60
2016-07-24T12:14:45.119Z,115
2016-07-24T12:15:46.518Z,120
2016-07-24T12:16:44.369Z,95
2016-07-24T12:17:46.519Z,65
2016-07-24T12:18:45.773Z,105
2016-07-24T12:19:45.777Z,55
2016-07-24T12:20:45.766Z,55
2016-07-24T12:21:45.795Z,55
2016-07-24T12:22:45.779Z,50
2016-07-24T12:23:46.478Z,55
2016-07-24T12:24:45.037Z,55
2016-07-24T12:25:45.053Z,55
2016-07-24T12:26:45.778Z,55
2016-07-24T12:27:46.470Z,65
2016-07-24T12:28:46.461Z,115
2016-07-24T12:29:46.448Z,85
2016-07-24T12:30:46.448Z,95
2016-07-24T12:31:45.751Z,95
2016-07-24T12:32:45.719Z,60
2016-07-24T12:33:45.748Z,55
2016-07-24T12:34:44.997Z,60
2016-07-24T12:35:45.701Z,60
2016-07-24T12:36:44.996Z,60
2016-07-24T12:37:46.429Z,60
2016-07-24T12:38:45.686Z,60
2016-07-24T12:39:45.694Z,60
2016-07-24T12:40:46.416Z,80
2016-07-24T12:41:44.944Z,65
2016-07-24T12:42:44.941Z,65
2016-07-24T12:43:46.446Z,75
2016-07-24T12:44:45.649Z,65
2016-07-24T12:45:46.448Z,70
2016-07-24T12:46:44.938Z,70
2016-07-24T12:47:46.354Z,115
2016-07-24T12:48:44.208Z,60
2016-07-24T12:49:46.388Z,55
2016-07-24T12:50:44.198Z,55
2016-07-24T12:51:45.621Z,55
2016-07-24T12:52:45.628Z,50
2016-07-24T12:53:45.615Z,50
2016-07-24T12:54:44.187Z,50
2016-07-24T12:55:45.590Z,50
2016-07-24T12:56:44.878Z,50
2016-07-24T12:57:44.156Z,50
2016-07-24T12:58:44.883Z,50
2016-07-24T12:59:45.582Z,50
2016-07-24T13:00:45.568Z,50
2016-07-24T13:01:44.139Z,50
2016-07-24T13:02:46.258Z,50
2016-07-24T13:03:46.277Z,50
2016-07-24T13:04:45.560Z,50
2016-07-24T13:05:46.327Z,50
2016-07-24T13:06:46.292Z,50
2016-07-24T13:07:45.533Z,50
2016-07-24T13:08:45.528Z,50
2016-07-24T13:09:44.818Z,45
2016-07-24T13:10:44.821Z,45
2016-07-24T13:11:45.526Z,45
2016-07-24T13:12:46.241Z,45
2016-07-24T13:13:44.801Z,45
2016-07-24T13:14:45.660Z,45
2016-07-24T13:15:44.836Z,45
2016-07-24T13:16:46.317Z,45
2016-07-24T13:17:46.212Z,45
2016-07-24T13:18:46.220Z,45
2016-07-24T13:19:44.759Z,45
2016-07-24T13:20:46.227Z,45
2016-07-24T13:21:45.466Z,45
2016-07-24T13:22:44.105Z,45
2016-07-24T13:23:45.448Z,45
2016-07-24T13:24:46.158Z,45
2016-07-24T13:25:46.162Z,40
2016-07-24T13:26:44.727Z,40
2016-07-24T13:27:46.160Z,40
2016-07-24T13:28:44.699Z,40
2016-07-24T13:29:45.415Z,40
2016-07-24T13:30:46.117Z,40
2016-07-24T13:31:46.130Z,40
2016-07-24T13:32:46.117Z,40
2016-07-24T13:33:43.954Z,35
2016-07-24T13:34:46.151Z,35
2016-07-24T13:35:45.422Z,35
2016-07-24T13:36:45.367Z,35
2016-07-24T13:37:45.374Z,35
2016-07-24T13:38:45.381Z,30
2016-07-24T13:39:46.079Z,30
2016-07-24T13:40:46.109Z,35
2016-07-24T13:41:46.068Z,35
2016-07-24T13:42:45.351Z,35
2016-07-24T13:43:44.649Z,35
2016-07-24T13:44:46.052Z,35
2016-07-24T13:45:45.326Z,35
2016-07-24T13:46:45.337Z,35
2016-07-24T13:47:45.357Z,35
2016-07-24T13:48:45.301Z,35
2016-07-24T13:49:45.306Z,40
2016-07-24T13:50:46.010Z,40
2016-07-24T13:51:45.285Z,40
2016-07-24T13:52:45.280Z,40
2016-07-24T13:53:46.050Z,40
2016-07-24T13:54:45.279Z,45
2016-07-24T13:55:46.040Z,55
2016-07-24T13:56:45.258Z,75
2016-07-24T13:57:44.577Z,75
2016-07-24T13:58:45.961Z,85
2016-07-24T13:59:45.249Z,80
2016-07-24T14:00:45.240Z,55
2016-07-24T14:01:44.527Z,55
2016-07-24T14:02:45.210Z,55
2016-07-24T14:03:44.550Z,55
2016-07-24T14:04:44.511Z,60
2016-07-24T14:05:45.950Z,65
2016-07-24T14:06:45.216Z,60
2016-07-24T14:07:44.499Z,95
2016-07-24T14:08:45.178Z,65
2016-07-24T14:09:45.196Z,55
2016-07-24T14:10:44.523Z,55
2016-07-24T14:11:45.194Z,60
2016-07-24T14:12:45.160Z,60
2016-07-24T14:13:45.159Z,60
2016-07-24T14:14:45.161Z,100